sensor_id;sensor_type;location;lat;lon;timestamp;P1;durP1;ratioP1;P2;durP2;ratioP2
34767;SDS011;21755;43.608;1.236;2023-09-08T00:01:38;3.90;;;3.28;;
34767;SDS011;21755;43.608;1.236;2023-09-08T00:04:04;6.82;;;3.53;;
34767;SDS011;21755;43.608;1.236;2023-09-08T00:06:31;6.50;;;3.13;;
34767;SDS011;21755;43.608;1.236;2023-09-08T00:08:57;8.32;;;3.72;;
34767;SDS011;21755;43.608;1.236;2023-09-08T00:11:23;6.30;;;3.40;;
34767;SDS011;21755;43.608;1.236;2023-09-08T00:13:48;4.68;;;3.35;;
34767;SDS011;21755;43.608;1.236;2023-09-08T00:16:15;4.38;;;3.10;;
34767;SDS011;21755;43.608;1.236;2023-09-08T00:18:41;6.82;;;3.60;;
34767;SDS011;21755;43.608;1.236;2023-09-08T00:21:07;5.35;;;3.90;;
34767;SDS011;21755;43.608;1.236;2023-09-08T00:23:33;3.50;;;3.13;;
34767;SDS011;21755;43.608;1.236;2023-09-08T00:25:59;4.15;;;3.65;;
34767;SDS011;21755;43.608;1.236;2023-09-08T00:28:24;4.45;;;3.55;;
34767;SDS011;21755;43.608;1.236;2023-09-08T00:30:50;5.97;;;3.63;;
34767;SDS011;21755;43.608;1.236;2023-09-08T00:33:16;9.25;;;3.65;;
34767;SDS011;21755;43.608;1.236;2023-09-08T00:35:45;5.90;;;3.33;;
34767;SDS011;21755;43.608;1.236;2023-09-08T00:38:14;4.75;;;3.60;;
34767;SDS011;21755;43.608;1.236;2023-09-08T00:40:40;6.05;;;3.72;;
34767;SDS011;21755;43.608;1.236;2023-09-08T00:43:06;3.72;;;3.33;;
34767;SDS011;21755;43.608;1.236;2023-09-08T00:45:31;4.72;;;3.78;;
34767;SDS011;21755;43.608;1.236;2023-09-08T00:48:06;8.07;;;3.63;;
34767;SDS011;21755;43.608;1.236;2023-09-08T00:50:32;6.05;;;3.67;;
34767;SDS011;21755;43.608;1.236;2023-09-08T00:52:58;6.90;;;4.00;;
34767;SDS011;21755;43.608;1.236;2023-09-08T00:55:24;5.35;;;3.42;;
34767;SDS011;21755;43.608;1.236;2023-09-08T00:57:50;5.80;;;4.00;;
34767;SDS011;21755;43.608;1.236;2023-09-08T01:00:16;6.28;;;4.05;;
34767;SDS011;21755;43.608;1.236;2023-09-08T01:02:42;4.32;;;3.67;;
34767;SDS011;21755;43.608;1.236;2023-09-08T01:05:10;4.13;;;3.72;;
34767;SDS011;21755;43.608;1.236;2023-09-08T01:07:36;7.90;;;4.25;;
34767;SDS011;21755;43.608;1.236;2023-09-08T01:10:02;5.13;;;3.97;;
34767;SDS011;21755;43.608;1.236;2023-09-08T01:12:31;8.18;;;3.92;;
34767;SDS011;21755;43.608;1.236;2023-09-08T01:14:58;6.70;;;3.85;;
34767;SDS011;21755;43.608;1.236;2023-09-08T01:17:25;4.53;;;3.50;;
34767;SDS011;21755;43.608;1.236;2023-09-08T01:19:51;6.43;;;3.95;;
34767;SDS011;21755;43.608;1.236;2023-09-08T01:22:21;6.25;;;3.90;;
34767;SDS011;21755;43.608;1.236;2023-09-08T01:27:37;4.82;;;4.10;;
34767;SDS011;21755;43.608;1.236;2023-09-08T01:30:06;4.68;;;3.85;;
34767;SDS011;21755;43.608;1.236;2023-09-08T01:32:33;6.90;;;4.22;;
34767;SDS011;21755;43.608;1.236;2023-09-08T01:34:59;10.80;;;4.47;;
34767;SDS011;21755;43.608;1.236;2023-09-08T01:37:26;6.18;;;4.20;;
34767;SDS011;21755;43.608;1.236;2023-09-08T01:39:51;6.47;;;4.22;;
34767;SDS011;21755;43.608;1.236;2023-09-08T01:42:17;7.07;;;4.13;;
34767;SDS011;21755;43.608;1.236;2023-09-08T01:44:43;7.68;;;4.35;;
34767;SDS011;21755;43.608;1.236;2023-09-08T01:47:09;5.43;;;3.65;;
34767;SDS011;21755;43.608;1.236;2023-09-08T01:49:35;5.07;;;4.15;;
34767;SDS011;21755;43.608;1.236;2023-09-08T01:52:00;4.63;;;4.00;;
34767;SDS011;21755;43.608;1.236;2023-09-08T01:54:26;6.85;;;5.03;;
34767;SDS011;21755;43.608;1.236;2023-09-08T01:56:52;6.28;;;4.10;;
34767;SDS011;21755;43.608;1.236;2023-09-08T01:59:18;6.15;;;4.47;;
34767;SDS011;21755;43.608;1.236;2023-09-08T02:01:44;7.32;;;4.28;;
34767;SDS011;21755;43.608;1.236;2023-09-08T02:04:09;6.78;;;4.80;;
34767;SDS011;21755;43.608;1.236;2023-09-08T02:06:35;6.28;;;3.70;;
34767;SDS011;21755;43.608;1.236;2023-09-08T02:09:01;5.38;;;4.15;;
34767;SDS011;21755;43.608;1.236;2023-09-08T02:11:27;5.53;;;4.10;;
34767;SDS011;21755;43.608;1.236;2023-09-08T02:13:53;9.98;;;4.78;;
34767;SDS011;21755;43.608;1.236;2023-09-08T02:16:18;9.15;;;3.90;;
34767;SDS011;21755;43.608;1.236;2023-09-08T02:18:44;6.35;;;5.05;;
34767;SDS011;21755;43.608;1.236;2023-09-08T02:21:11;6.13;;;3.90;;
34767;SDS011;21755;43.608;1.236;2023-09-08T02:23:36;5.53;;;4.53;;
34767;SDS011;21755;43.608;1.236;2023-09-08T02:26:03;5.78;;;4.03;;
34767;SDS011;21755;43.608;1.236;2023-09-08T02:28:28;4.72;;;4.00;;
34767;SDS011;21755;43.608;1.236;2023-09-08T02:30:54;5.03;;;3.90;;
34767;SDS011;21755;43.608;1.236;2023-09-08T02:33:20;7.00;;;4.28;;
34767;SDS011;21755;43.608;1.236;2023-09-08T02:35:46;7.75;;;4.22;;
34767;SDS011;21755;43.608;1.236;2023-09-08T02:38:12;8.80;;;4.50;;
34767;SDS011;21755;43.608;1.236;2023-09-08T02:40:38;4.07;;;3.67;;
34767;SDS011;21755;43.608;1.236;2023-09-08T02:43:03;9.45;;;4.72;;
34767;SDS011;21755;43.608;1.236;2023-09-08T02:45:29;5.13;;;3.97;;
34767;SDS011;21755;43.608;1.236;2023-09-08T02:47:55;8.95;;;5.15;;
34767;SDS011;21755;43.608;1.236;2023-09-08T02:50:21;6.38;;;4.30;;
34767;SDS011;21755;43.608;1.236;2023-09-08T02:52:47;9.32;;;4.40;;
34767;SDS011;21755;43.608;1.236;2023-09-08T02:55:14;7.65;;;4.57;;
34767;SDS011;21755;43.608;1.236;2023-09-08T02:57:40;7.18;;;4.68;;
34767;SDS011;21755;43.608;1.236;2023-09-08T03:00:06;5.57;;;4.60;;
34767;SDS011;21755;43.608;1.236;2023-09-08T03:02:32;8.35;;;4.95;;
34767;SDS011;21755;43.608;1.236;2023-09-08T03:04:59;9.27;;;4.65;;
34767;SDS011;21755;43.608;1.236;2023-09-08T03:07:25;6.32;;;4.47;;
34767;SDS011;21755;43.608;1.236;2023-09-08T03:09:52;10.07;;;5.38;;
34767;SDS011;21755;43.608;1.236;2023-09-08T03:12:18;5.97;;;4.53;;
34767;SDS011;21755;43.608;1.236;2023-09-08T03:14:44;9.35;;;5.43;;
34767;SDS011;21755;43.608;1.236;2023-09-08T03:17:10;4.43;;;3.70;;
34767;SDS011;21755;43.608;1.236;2023-09-08T03:19:38;7.10;;;4.57;;
34767;SDS011;21755;43.608;1.236;2023-09-08T03:22:04;9.57;;;5.22;;
34767;SDS011;21755;43.608;1.236;2023-09-08T03:24:30;6.10;;;4.35;;
34767;SDS011;21755;43.608;1.236;2023-09-08T03:26:55;7.53;;;5.10;;
34767;SDS011;21755;43.608;1.236;2023-09-08T03:29:23;6.10;;;4.53;;
34767;SDS011;21755;43.608;1.236;2023-09-08T03:31:49;10.65;;;5.32;;
34767;SDS011;21755;43.608;1.236;2023-09-08T03:34:14;7.05;;;4.93;;
34767;SDS011;21755;43.608;1.236;2023-09-08T03:36:40;6.50;;;4.70;;
34767;SDS011;21755;43.608;1.236;2023-09-08T03:39:06;6.68;;;5.05;;
34767;SDS011;21755;43.608;1.236;2023-09-08T03:41:34;5.45;;;4.55;;
34767;SDS011;21755;43.608;1.236;2023-09-08T03:44:00;5.38;;;4.75;;
34767;SDS011;21755;43.608;1.236;2023-09-08T03:46:26;6.95;;;5.00;;
34767;SDS011;21755;43.608;1.236;2023-09-08T03:48:52;10.10;;;5.00;;
34767;SDS011;21755;43.608;1.236;2023-09-08T03:51:23;5.10;;;4.10;;
34767;SDS011;21755;43.608;1.236;2023-09-08T03:53:49;6.78;;;5.20;;
34767;SDS011;21755;43.608;1.236;2023-09-08T03:56:16;8.18;;;5.00;;
34767;SDS011;21755;43.608;1.236;2023-09-08T03:58:42;6.55;;;5.22;;
34767;SDS011;21755;43.608;1.236;2023-09-08T04:01:07;7.43;;;4.97;;
34767;SDS011;21755;43.608;1.236;2023-09-08T04:03:33;9.20;;;5.65;;
34767;SDS011;21755;43.608;1.236;2023-09-08T04:05:59;5.80;;;5.00;;
34767;SDS011;21755;43.608;1.236;2023-09-08T04:08:25;6.07;;;4.53;;
34767;SDS011;21755;43.608;1.236;2023-09-08T04:10:51;7.60;;;4.90;;
34767;SDS011;21755;43.608;1.236;2023-09-08T04:13:16;8.05;;;5.10;;
34767;SDS011;21755;43.608;1.236;2023-09-08T04:15:42;6.93;;;5.18;;
34767;SDS011;21755;43.608;1.236;2023-09-08T04:18:08;6.10;;;4.85;;
34767;SDS011;21755;43.608;1.236;2023-09-08T04:20:34;8.15;;;4.90;;
34767;SDS011;21755;43.608;1.236;2023-09-08T04:23:00;12.05;;;5.82;;
34767;SDS011;21755;43.608;1.236;2023-09-08T04:25:25;8.18;;;4.97;;
34767;SDS011;21755;43.608;1.236;2023-09-08T04:27:51;7.15;;;5.00;;
34767;SDS011;21755;43.608;1.236;2023-09-08T04:30:17;6.50;;;5.25;;
34767;SDS011;21755;43.608;1.236;2023-09-08T04:32:43;6.15;;;4.90;;
34767;SDS011;21755;43.608;1.236;2023-09-08T04:35:09;8.57;;;4.90;;
34767;SDS011;21755;43.608;1.236;2023-09-08T04:37:35;8.35;;;5.30;;
34767;SDS011;21755;43.608;1.236;2023-09-08T04:40:02;6.10;;;5.20;;
34767;SDS011;21755;43.608;1.236;2023-09-08T04:42:29;6.43;;;5.10;;
34767;SDS011;21755;43.608;1.236;2023-09-08T04:44:56;6.15;;;5.10;;
34767;SDS011;21755;43.608;1.236;2023-09-08T04:47:22;15.90;;;5.93;;
34767;SDS011;21755;43.608;1.236;2023-09-08T04:49:47;6.88;;;5.13;;
34767;SDS011;21755;43.608;1.236;2023-09-08T04:52:13;8.55;;;5.00;;
34767;SDS011;21755;43.608;1.236;2023-09-08T04:54:39;8.20;;;5.38;;
34767;SDS011;21755;43.608;1.236;2023-09-08T04:57:05;5.15;;;4.65;;
34767;SDS011;21755;43.608;1.236;2023-09-08T04:59:31;8.57;;;5.20;;
34767;SDS011;21755;43.608;1.236;2023-09-08T05:01:58;8.90;;;5.22;;
34767;SDS011;21755;43.608;1.236;2023-09-08T05:04:24;9.00;;;5.60;;
34767;SDS011;21755;43.608;1.236;2023-09-08T05:06:50;9.60;;;5.38;;
34767;SDS011;21755;43.608;1.236;2023-09-08T05:09:15;8.40;;;6.00;;
34767;SDS011;21755;43.608;1.236;2023-09-08T05:11:41;11.02;;;5.60;;
34767;SDS011;21755;43.608;1.236;2023-09-08T05:14:07;6.30;;;5.05;;
34767;SDS011;21755;43.608;1.236;2023-09-08T05:16:33;7.38;;;5.65;;
34767;SDS011;21755;43.608;1.236;2023-09-08T05:19:04;11.35;;;5.68;;
34767;SDS011;21755;43.608;1.236;2023-09-08T05:21:31;9.55;;;5.47;;
34767;SDS011;21755;43.608;1.236;2023-09-08T05:23:57;6.85;;;5.32;;
34767;SDS011;21755;43.608;1.236;2023-09-08T05:26:23;8.35;;;6.03;;
34767;SDS011;21755;43.608;1.236;2023-09-08T05:28:49;8.93;;;5.63;;
34767;SDS011;21755;43.608;1.236;2023-09-08T05:31:14;7.22;;;5.07;;
34767;SDS011;21755;43.608;1.236;2023-09-08T05:33:40;9.10;;;5.22;;
34767;SDS011;21755;43.608;1.236;2023-09-08T05:36:06;6.68;;;5.45;;
34767;SDS011;21755;43.608;1.236;2023-09-08T05:38:32;6.05;;;4.82;;
34767;SDS011;21755;43.608;1.236;2023-09-08T05:40:58;7.38;;;5.03;;
34767;SDS011;21755;43.608;1.236;2023-09-08T05:43:24;9.77;;;5.13;;
34767;SDS011;21755;43.608;1.236;2023-09-08T05:45:50;6.82;;;4.85;;
34767;SDS011;21755;43.608;1.236;2023-09-08T05:48:16;11.50;;;5.65;;
34767;SDS011;21755;43.608;1.236;2023-09-08T05:50:42;7.03;;;5.10;;
34767;SDS011;21755;43.608;1.236;2023-09-08T05:53:08;7.53;;;5.13;;
34767;SDS011;21755;43.608;1.236;2023-09-08T05:55:34;7.45;;;5.05;;
34767;SDS011;21755;43.608;1.236;2023-09-08T05:57:59;14.43;;;5.88;;
34767;SDS011;21755;43.608;1.236;2023-09-08T06:00:25;10.45;;;5.65;;
34767;SDS011;21755;43.608;1.236;2023-09-08T06:02:51;6.30;;;5.32;;
34767;SDS011;21755;43.608;1.236;2023-09-08T06:05:17;8.73;;;6.03;;
34767;SDS011;21755;43.608;1.236;2023-09-08T06:07:43;10.63;;;6.07;;
34767;SDS011;21755;43.608;1.236;2023-09-08T06:10:09;10.18;;;5.65;;
34767;SDS011;21755;43.608;1.236;2023-09-08T06:12:35;7.53;;;5.57;;
34767;SDS011;21755;43.608;1.236;2023-09-08T06:15:18;11.97;;;5.73;;
34767;SDS011;21755;43.608;1.236;2023-09-08T06:17:44;10.35;;;6.47;;
34767;SDS011;21755;43.608;1.236;2023-09-08T06:20:11;11.38;;;5.65;;
34767;SDS011;21755;43.608;1.236;2023-09-08T06:22:37;9.85;;;5.32;;
34767;SDS011;21755;43.608;1.236;2023-09-08T06:25:03;14.02;;;5.88;;
34767;SDS011;21755;43.608;1.236;2023-09-08T06:27:29;8.50;;;5.95;;
34767;SDS011;21755;43.608;1.236;2023-09-08T06:29:55;9.05;;;6.30;;
34767;SDS011;21755;43.608;1.236;2023-09-08T06:32:22;10.00;;;5.70;;
34767;SDS011;21755;43.608;1.236;2023-09-08T06:34:47;7.72;;;5.35;;
34767;SDS011;21755;43.608;1.236;2023-09-08T06:37:13;9.15;;;5.93;;
34767;SDS011;21755;43.608;1.236;2023-09-08T06:39:39;8.52;;;5.18;;
34767;SDS011;21755;43.608;1.236;2023-09-08T06:42:05;6.85;;;5.72;;
34767;SDS011;21755;43.608;1.236;2023-09-08T06:44:31;13.27;;;5.82;;
34767;SDS011;21755;43.608;1.236;2023-09-08T06:46:57;8.20;;;5.72;;
34767;SDS011;21755;43.608;1.236;2023-09-08T06:49:23;9.55;;;5.50;;
34767;SDS011;21755;43.608;1.236;2023-09-08T06:51:48;10.13;;;5.40;;
34767;SDS011;21755;43.608;1.236;2023-09-08T06:54:14;7.43;;;5.57;;
34767;SDS011;21755;43.608;1.236;2023-09-08T06:56:40;8.85;;;5.47;;
34767;SDS011;21755;43.608;1.236;2023-09-08T06:59:06;9.55;;;5.47;;
34767;SDS011;21755;43.608;1.236;2023-09-08T07:01:32;12.45;;;5.55;;
34767;SDS011;21755;43.608;1.236;2023-09-08T07:03:57;7.68;;;4.68;;
34767;SDS011;21755;43.608;1.236;2023-09-08T07:06:23;10.15;;;5.18;;
34767;SDS011;21755;43.608;1.236;2023-09-08T07:08:49;7.88;;;5.40;;
34767;SDS011;21755;43.608;1.236;2023-09-08T07:11:15;13.13;;;4.97;;
34767;SDS011;21755;43.608;1.236;2023-09-08T07:13:41;7.80;;;4.80;;
34767;SDS011;21755;43.608;1.236;2023-09-08T07:16:07;8.95;;;5.07;;
34767;SDS011;21755;43.608;1.236;2023-09-08T07:18:33;11.95;;;6.57;;
34767;SDS011;21755;43.608;1.236;2023-09-08T07:21:01;11.93;;;4.93;;
34767;SDS011;21755;43.608;1.236;2023-09-08T07:23:27;9.95;;;4.78;;
34767;SDS011;21755;43.608;1.236;2023-09-08T07:25:53;12.15;;;5.22;;
34767;SDS011;21755;43.608;1.236;2023-09-08T07:28:19;11.43;;;5.60;;
34767;SDS011;21755;43.608;1.236;2023-09-08T07:30:45;7.50;;;4.20;;
34767;SDS011;21755;43.608;1.236;2023-09-08T07:33:11;14.75;;;5.20;;
34767;SDS011;21755;43.608;1.236;2023-09-08T07:35:37;8.90;;;4.53;;
34767;SDS011;21755;43.608;1.236;2023-09-08T07:38:04;17.42;;;4.53;;
34767;SDS011;21755;43.608;1.236;2023-09-08T07:40:31;9.40;;;3.90;;
34767;SDS011;21755;43.608;1.236;2023-09-08T07:43:00;10.52;;;5.18;;
34767;SDS011;21755;43.608;1.236;2023-09-08T07:45:27;7.93;;;4.00;;
34767;SDS011;21755;43.608;1.236;2023-09-08T07:47:53;9.98;;;3.67;;
34767;SDS011;21755;43.608;1.236;2023-09-08T07:50:25;21.42;;;5.25;;
34767;SDS011;21755;43.608;1.236;2023-09-08T07:52:53;9.05;;;4.30;;
34767;SDS011;21755;43.608;1.236;2023-09-08T07:55:20;9.20;;;3.95;;
34767;SDS011;21755;43.608;1.236;2023-09-08T07:57:52;8.50;;;3.70;;
34767;SDS011;21755;43.608;1.236;2023-09-08T08:00:18;8.63;;;3.70;;
34767;SDS011;21755;43.608;1.236;2023-09-08T08:02:46;10.70;;;3.58;;
34767;SDS011;21755;43.608;1.236;2023-09-08T08:05:13;7.13;;;3.72;;
34767;SDS011;21755;43.608;1.236;2023-09-08T08:07:39;24.20;;;5.20;;
34767;SDS011;21755;43.608;1.236;2023-09-08T08:10:06;14.50;;;4.50;;
34767;SDS011;21755;43.608;1.236;2023-09-08T08:12:32;11.02;;;3.80;;
34767;SDS011;21755;43.608;1.236;2023-09-08T08:14:58;10.65;;;4.05;;
34767;SDS011;21755;43.608;1.236;2023-09-08T08:17:24;5.70;;;4.13;;
34767;SDS011;21755;43.608;1.236;2023-09-08T08:19:51;7.82;;;4.00;;
34767;SDS011;21755;43.608;1.236;2023-09-08T08:22:17;5.55;;;3.80;;
34767;SDS011;21755;43.608;1.236;2023-09-08T08:24:43;8.88;;;4.15;;
34767;SDS011;21755;43.608;1.236;2023-09-08T08:27:09;9.32;;;3.95;;
34767;SDS011;21755;43.608;1.236;2023-09-08T08:29:35;19.65;;;4.82;;
34767;SDS011;21755;43.608;1.236;2023-09-08T08:32:01;4.82;;;2.92;;
34767;SDS011;21755;43.608;1.236;2023-09-08T08:34:27;18.45;;;4.25;;
34767;SDS011;21755;43.608;1.236;2023-09-08T08:36:53;27.38;;;5.10;;
34767;SDS011;21755;43.608;1.236;2023-09-08T08:39:19;5.35;;;3.35;;
34767;SDS011;21755;43.608;1.236;2023-09-08T08:41:45;3.95;;;3.17;;
34767;SDS011;21755;43.608;1.236;2023-09-08T08:44:11;21.67;;;5.90;;
34767;SDS011;21755;43.608;1.236;2023-09-08T08:46:37;5.07;;;3.08;;
34767;SDS011;21755;43.608;1.236;2023-09-08T08:49:05;9.05;;;3.42;;
34767;SDS011;21755;43.608;1.236;2023-09-08T08:51:34;6.80;;;3.95;;
34767;SDS011;21755;43.608;1.236;2023-09-08T08:56:30;5.05;;;3.33;;
34767;SDS011;21755;43.608;1.236;2023-09-08T08:59:00;3.17;;;2.78;;
34767;SDS011;21755;43.608;1.236;2023-09-08T09:01:26;6.18;;;3.20;;
34767;SDS011;21755;43.608;1.236;2023-09-08T09:03:53;9.23;;;3.78;;
34767;SDS011;21755;43.608;1.236;2023-09-08T09:06:20;7.07;;;3.25;;
34767;SDS011;21755;43.608;1.236;2023-09-08T09:08:46;5.50;;;3.03;;
34767;SDS011;21755;43.608;1.236;2023-09-08T09:11:12;15.07;;;3.75;;
34767;SDS011;21755;43.608;1.236;2023-09-08T09:13:38;5.20;;;3.45;;
34767;SDS011;21755;43.608;1.236;2023-09-08T09:16:04;34.88;;;5.80;;
34767;SDS011;21755;43.608;1.236;2023-09-08T09:18:40;3.92;;;3.15;;
34767;SDS011;21755;43.608;1.236;2023-09-08T09:21:20;5.95;;;3.10;;
34767;SDS011;21755;43.608;1.236;2023-09-08T09:23:46;5.65;;;3.13;;
34767;SDS011;21755;43.608;1.236;2023-09-08T09:26:12;3.75;;;3.35;;
34767;SDS011;21755;43.608;1.236;2023-09-08T09:28:49;9.10;;;3.33;;
34767;SDS011;21755;43.608;1.236;2023-09-08T09:31:17;3.35;;;3.00;;
34767;SDS011;21755;43.608;1.236;2023-09-08T09:33:46;5.32;;;3.10;;
34767;SDS011;21755;43.608;1.236;2023-09-08T09:36:19;8.60;;;3.13;;
34767;SDS011;21755;43.608;1.236;2023-09-08T09:38:46;5.30;;;3.20;;
34767;SDS011;21755;43.608;1.236;2023-09-08T09:41:12;5.00;;;3.53;;
34767;SDS011;21755;43.608;1.236;2023-09-08T09:43:38;5.13;;;3.10;;
34767;SDS011;21755;43.608;1.236;2023-09-08T09:46:07;7.93;;;2.80;;
34767;SDS011;21755;43.608;1.236;2023-09-08T09:48:34;11.18;;;3.78;;
34767;SDS011;21755;43.608;1.236;2023-09-08T09:51:14;5.47;;;3.28;;
34767;SDS011;21755;43.608;1.236;2023-09-08T09:53:42;12.75;;;3.33;;
34767;SDS011;21755;43.608;1.236;2023-09-08T09:56:09;5.07;;;2.97;;
34767;SDS011;21755;43.608;1.236;2023-09-08T09:58:36;5.43;;;2.63;;
34767;SDS011;21755;43.608;1.236;2023-09-08T10:01:03;5.22;;;3.00;;
34767;SDS011;21755;43.608;1.236;2023-09-08T10:03:30;3.13;;;2.75;;
34767;SDS011;21755;43.608;1.236;2023-09-08T10:05:58;6.78;;;3.35;;
34767;SDS011;21755;43.608;1.236;2023-09-08T10:08:25;4.55;;;3.42;;
34767;SDS011;21755;43.608;1.236;2023-09-08T10:10:51;7.13;;;3.38;;
34767;SDS011;21755;43.608;1.236;2023-09-08T10:13:59;4.95;;;3.80;;
34767;SDS011;21755;43.608;1.236;2023-09-08T10:16:09;5.60;;;3.42;;
34767;SDS011;21755;43.608;1.236;2023-09-08T10:18:39;5.38;;;3.10;;
34767;SDS011;21755;43.608;1.236;2023-09-08T10:21:10;5.68;;;3.28;;
34767;SDS011;21755;43.608;1.236;2023-09-08T10:23:40;6.63;;;3.38;;
34767;SDS011;21755;43.608;1.236;2023-09-08T10:26:12;2.80;;;2.47;;
34767;SDS011;21755;43.608;1.236;2023-09-08T10:31:07;11.80;;;3.78;;
34767;SDS011;21755;43.608;1.236;2023-09-08T10:33:35;3.97;;;2.80;;
34767;SDS011;21755;43.608;1.236;2023-09-08T10:36:02;5.47;;;3.20;;
34767;SDS011;21755;43.608;1.236;2023-09-08T10:38:33;6.05;;;3.55;;
34767;SDS011;21755;43.608;1.236;2023-09-08T10:43:44;6.13;;;3.03;;
34767;SDS011;21755;43.608;1.236;2023-09-08T10:46:31;5.05;;;3.03;;
34767;SDS011;21755;43.608;1.236;2023-09-08T10:49:02;5.35;;;3.47;;
34767;SDS011;21755;43.608;1.236;2023-09-08T10:51:35;4.43;;;3.47;;
34767;SDS011;21755;43.608;1.236;2023-09-08T10:54:03;7.05;;;3.08;;
34767;SDS011;21755;43.608;1.236;2023-09-08T10:56:54;8.25;;;3.65;;
34767;SDS011;21755;43.608;1.236;2023-09-08T10:59:21;8.18;;;2.97;;
34767;SDS011;21755;43.608;1.236;2023-09-08T11:01:54;9.15;;;3.13;;
34767;SDS011;21755;43.608;1.236;2023-09-08T11:04:20;5.13;;;3.60;;
34767;SDS011;21755;43.608;1.236;2023-09-08T11:06:48;9.48;;;3.30;;
34767;SDS011;21755;43.608;1.236;2023-09-08T11:09:14;7.97;;;3.05;;
34767;SDS011;21755;43.608;1.236;2023-09-08T11:11:41;4.60;;;2.97;;
34767;SDS011;21755;43.608;1.236;2023-09-08T11:14:07;3.85;;;3.25;;
34767;SDS011;21755;43.608;1.236;2023-09-08T11:16:33;6.57;;;3.38;;
34767;SDS011;21755;43.608;1.236;2023-09-08T11:19:00;3.97;;;3.13;;
34767;SDS011;21755;43.608;1.236;2023-09-08T11:21:29;4.22;;;2.95;;
34767;SDS011;21755;43.608;1.236;2023-09-08T11:24:00;5.00;;;2.97;;
34767;SDS011;21755;43.608;1.236;2023-09-08T11:26:34;5.50;;;3.42;;
34767;SDS011;21755;43.608;1.236;2023-09-08T11:29:00;4.05;;;3.00;;
34767;SDS011;21755;43.608;1.236;2023-09-08T11:31:26;11.18;;;2.90;;
34767;SDS011;21755;43.608;1.236;2023-09-08T11:33:54;3.30;;;2.80;;
34767;SDS011;21755;43.608;1.236;2023-09-08T11:36:20;4.03;;;2.78;;
34767;SDS011;21755;43.608;1.236;2023-09-08T11:38:46;6.35;;;3.00;;
34767;SDS011;21755;43.608;1.236;2023-09-08T11:41:12;7.07;;;3.42;;
34767;SDS011;21755;43.608;1.236;2023-09-08T11:43:38;6.53;;;3.28;;
34767;SDS011;21755;43.608;1.236;2023-09-08T11:46:04;8.85;;;3.30;;
34767;SDS011;21755;43.608;1.236;2023-09-08T11:48:31;6.97;;;2.92;;
34767;SDS011;21755;43.608;1.236;2023-09-08T11:50:57;5.95;;;3.30;;
34767;SDS011;21755;43.608;1.236;2023-09-08T11:53:23;6.55;;;3.38;;
34767;SDS011;21755;43.608;1.236;2023-09-08T11:55:50;6.72;;;2.90;;
34767;SDS011;21755;43.608;1.236;2023-09-08T11:58:16;3.85;;;2.80;;
34767;SDS011;21755;43.608;1.236;2023-09-08T12:00:44;4.68;;;3.22;;
34767;SDS011;21755;43.608;1.236;2023-09-08T12:03:13;6.28;;;3.33;;
34767;SDS011;21755;43.608;1.236;2023-09-08T12:05:41;8.48;;;3.33;;
34767;SDS011;21755;43.608;1.236;2023-09-08T12:08:09;5.35;;;3.03;;
34767;SDS011;21755;43.608;1.236;2023-09-08T12:10:41;6.72;;;2.92;;
34767;SDS011;21755;43.608;1.236;2023-09-08T12:13:07;6.00;;;3.67;;
34767;SDS011;21755;43.608;1.236;2023-09-08T12:15:38;7.72;;;3.10;;
34767;SDS011;21755;43.608;1.236;2023-09-08T12:18:06;12.73;;;3.85;;
34767;SDS011;21755;43.608;1.236;2023-09-08T12:20:37;5.38;;;2.92;;
34767;SDS011;21755;43.608;1.236;2023-09-08T12:23:05;5.97;;;2.88;;
34767;SDS011;21755;43.608;1.236;2023-09-08T12:28:32;4.27;;;3.03;;
34767;SDS011;21755;43.608;1.236;2023-09-08T12:30:58;7.57;;;3.17;;
34767;SDS011;21755;43.608;1.236;2023-09-08T12:33:25;7.18;;;3.35;;
34767;SDS011;21755;43.608;1.236;2023-09-08T12:35:51;11.40;;;3.08;;
34767;SDS011;21755;43.608;1.236;2023-09-08T12:38:18;30.02;;;5.22;;
34767;SDS011;21755;43.608;1.236;2023-09-08T12:40:44;10.30;;;3.38;;
34767;SDS011;21755;43.608;1.236;2023-09-08T12:43:10;9.82;;;3.78;;
34767;SDS011;21755;43.608;1.236;2023-09-08T12:45:36;8.40;;;3.15;;
34767;SDS011;21755;43.608;1.236;2023-09-08T12:48:02;10.20;;;2.85;;
34767;SDS011;21755;43.608;1.236;2023-09-08T12:50:28;8.80;;;2.90;;
34767;SDS011;21755;43.608;1.236;2023-09-08T12:52:55;4.25;;;3.40;;
34767;SDS011;21755;43.608;1.236;2023-09-08T12:55:22;12.10;;;3.20;;
34767;SDS011;21755;43.608;1.236;2023-09-08T12:57:48;4.25;;;3.03;;
34767;SDS011;21755;43.608;1.236;2023-09-08T13:00:17;6.45;;;3.58;;
34767;SDS011;21755;43.608;1.236;2023-09-08T13:02:43;7.47;;;3.05;;
34767;SDS011;21755;43.608;1.236;2023-09-08T13:05:09;6.00;;;3.25;;
34767;SDS011;21755;43.608;1.236;2023-09-08T13:07:35;7.20;;;2.95;;
34767;SDS011;21755;43.608;1.236;2023-09-08T13:10:01;6.90;;;2.92;;
34767;SDS011;21755;43.608;1.236;2023-09-08T13:12:27;6.45;;;3.05;;
34767;SDS011;21755;43.608;1.236;2023-09-08T13:14:53;4.70;;;3.00;;
34767;SDS011;21755;43.608;1.236;2023-09-08T13:17:19;12.10;;;4.03;;
34767;SDS011;21755;43.608;1.236;2023-09-08T13:19:47;20.02;;;4.43;;
34767;SDS011;21755;43.608;1.236;2023-09-08T13:22:13;11.63;;;3.22;;
34767;SDS011;21755;43.608;1.236;2023-09-08T13:24:39;8.23;;;2.95;;
34767;SDS011;21755;43.608;1.236;2023-09-08T13:27:05;3.90;;;2.83;;
34767;SDS011;21755;43.608;1.236;2023-09-08T13:29:31;11.43;;;2.95;;
34767;SDS011;21755;43.608;1.236;2023-09-08T13:31:57;11.13;;;3.00;;
34767;SDS011;21755;43.608;1.236;2023-09-08T13:34:23;6.05;;;2.83;;
34767;SDS011;21755;43.608;1.236;2023-09-08T13:36:49;8.38;;;3.08;;
34767;SDS011;21755;43.608;1.236;2023-09-08T13:39:15;6.05;;;3.03;;
34767;SDS011;21755;43.608;1.236;2023-09-08T13:44:10;8.23;;;3.05;;
34767;SDS011;21755;43.608;1.236;2023-09-08T13:46:36;6.30;;;3.40;;
34767;SDS011;21755;43.608;1.236;2023-09-08T13:49:02;6.07;;;2.80;;
34767;SDS011;21755;43.608;1.236;2023-09-08T13:51:28;8.63;;;3.40;;
34767;SDS011;21755;43.608;1.236;2023-09-08T13:53:54;7.43;;;3.22;;
34767;SDS011;21755;43.608;1.236;2023-09-08T13:56:20;5.65;;;2.78;;
34767;SDS011;21755;43.608;1.236;2023-09-08T13:58:45;7.07;;;2.78;;
34767;SDS011;21755;43.608;1.236;2023-09-08T14:01:11;3.95;;;2.78;;
34767;SDS011;21755;43.608;1.236;2023-09-08T14:03:37;7.53;;;2.85;;
34767;SDS011;21755;43.608;1.236;2023-09-08T14:06:03;7.80;;;3.33;;
34767;SDS011;21755;43.608;1.236;2023-09-08T14:08:29;8.55;;;3.08;;
34767;SDS011;21755;43.608;1.236;2023-09-08T14:10:55;7.32;;;2.80;;
34767;SDS011;21755;43.608;1.236;2023-09-08T14:13:20;5.82;;;3.08;;
34767;SDS011;21755;43.608;1.236;2023-09-08T14:15:46;11.35;;;3.35;;
34767;SDS011;21755;43.608;1.236;2023-09-08T14:18:12;9.52;;;3.22;;
34767;SDS011;21755;43.608;1.236;2023-09-08T14:20:39;7.65;;;2.95;;
34767;SDS011;21755;43.608;1.236;2023-09-08T14:23:06;5.55;;;2.63;;
34767;SDS011;21755;43.608;1.236;2023-09-08T14:25:33;10.73;;;3.40;;
34767;SDS011;21755;43.608;1.236;2023-09-08T14:27:59;10.20;;;3.17;;
34767;SDS011;21755;43.608;1.236;2023-09-08T14:30:28;9.98;;;3.70;;
34767;SDS011;21755;43.608;1.236;2023-09-08T14:32:55;3.90;;;2.63;;
34767;SDS011;21755;43.608;1.236;2023-09-08T14:35:20;6.72;;;3.00;;
34767;SDS011;21755;43.608;1.236;2023-09-08T14:37:47;12.35;;;3.75;;
34767;SDS011;21755;43.608;1.236;2023-09-08T14:40:13;4.82;;;2.80;;
34767;SDS011;21755;43.608;1.236;2023-09-08T14:42:40;6.22;;;3.33;;
34767;SDS011;21755;43.608;1.236;2023-09-08T14:45:06;9.82;;;3.17;;
34767;SDS011;21755;43.608;1.236;2023-09-08T14:47:33;16.75;;;3.45;;
34767;SDS011;21755;43.608;1.236;2023-09-08T14:49:59;9.68;;;3.45;;
34767;SDS011;21755;43.608;1.236;2023-09-08T14:52:25;7.97;;;2.83;;
34767;SDS011;21755;43.608;1.236;2023-09-08T14:54:51;7.18;;;2.63;;
34767;SDS011;21755;43.608;1.236;2023-09-08T14:57:17;5.63;;;2.67;;
34767;SDS011;21755;43.608;1.236;2023-09-08T14:59:43;8.00;;;3.08;;